Time;durP1;ratioP1;P1;durP2;ratioP2;P2;SDS_P1;SDS_P2;PMS_P1;PMS_P2;Temp;Humidity;BMP_temperature;BMP_pressure;BME280_temperature;BME280_humidity;BME280_pressure;Samples;Min_cycle;Max_cycle;Signal;HPM_P1;HPM_P2
2022/12/09 00:01:10;;;;;;;47.77;21.27;;;;;;;;;;5035667;28;20212;-38
2022/12/09 00:03:37;;;;;;;38.43;20.17;;;;;;;;;;5034795;28;20236;-39
2022/12/09 00:06:19;;;;;;;41.87;22.00;;;;;;;;;;5034743;28;20275;-39
2022/12/09 00:08:46;;;;;;;34.93;19.57;;;;;;;;;;5034815;28;20211;-39
2022/12/09 00:11:14;;;;;;;35.53;18.10;;;;;;;;;;5034580;28;20282;-38
2022/12/09 00:13:40;;;;;;;35.40;18.60;;;;;;;;;;5034940;28;20367;-39
2022/12/09 00:16:10;;;;;;;42.33;19.97;;;;;;;;;;5034859;28;20205;-38
2022/12/09 00:18:38;;;;;;;40.03;18.80;;;;;;;;;;5033949;28;20219;-39
2022/12/09 00:21:29;;;;;;;39.17;19.23;;;;;;;;;;5034731;28;20213;-39
2022/12/09 00:23:57;;;;;;;35.93;18.97;;;;;;;;;;5034971;28;20199;-38
2022/12/09 00:26:26;;;;;;;39.47;18.70;;;;;;;;;;5034739;28;20244;-39
2022/12/09 00:28:54;;;;;;;49.50;28.23;;;;;;;;;;5034779;28;20211;-39
2022/12/09 00:31:24;;;;;;;33.83;18.60;;;;;;;;;;5034637;28;20244;-39
2022/12/09 00:33:54;;;;;;;32.60;17.73;;;;;;;;;;5033615;28;20657;-39
2022/12/09 00:36:22;;;;;;;33.13;17.63;;;;;;;;;;5050878;28;20205;-39
2022/12/09 00:38:50;;;;;;;32.93;17.43;;;;;;;;;;5043791;28;20265;-39
2022/12/09 00:41:17;;;;;;;38.10;18.80;;;;;;;;;;5053641;28;20220;-38
2022/12/09 00:43:45;;;;;;;29.93;16.50;;;;;;;;;;5054236;28;20510;-39
2022/12/09 00:46:13;;;;;;;29.33;16.63;;;;;;;;;;5054466;28;20223;-39
2022/12/09 00:48:41;;;;;;;30.17;15.73;;;;;;;;;;5054448;28;20201;-38
2022/12/09 00:51:13;;;;;;;28.33;14.17;;;;;;;;;;5054324;28;20231;-38
2022/12/09 00:53:40;;;;;;;33.40;16.20;;;;;;;;;;5054602;28;20200;-38
2022/12/09 00:56:08;;;;;;;29.30;15.60;;;;;;;;;;5053627;28;20204;-38
2022/12/09 00:58:35;;;;;;;31.70;16.47;;;;;;;;;;5054490;28;20208;-38
2022/12/09 01:01:03;;;;;;;29.70;15.80;;;;;;;;;;5054607;28;20216;-38
2022/12/09 01:03:30;;;;;;;29.10;14.50;;;;;;;;;;5054725;28;20207;-39
2022/12/09 01:05:58;;;;;;;28.60;14.57;;;;;;;;;;5054187;28;20204;-39
2022/12/09 01:08:25;;;;;;;27.27;15.33;;;;;;;;;;5055240;28;20703;-38
2022/12/09 01:10:53;;;;;;;34.00;15.97;;;;;;;;;;5056898;28;20555;-39
2022/12/09 01:13:20;;;;;;;32.07;15.93;;;;;;;;;;5056680;28;20219;-38
2022/12/09 01:15:47;;;;;;;28.73;15.13;;;;;;;;;;5057919;28;20226;-38
2022/12/09 01:18:14;;;;;;;33.43;16.67;;;;;;;;;;5057541;28;20701;-38
2022/12/09 01:20:42;;;;;;;29.63;14.90;;;;;;;;;;5057590;28;20208;-40
2022/12/09 01:23:09;;;;;;;28.50;15.17;;;;;;;;;;5057608;28;20219;-38
2022/12/09 01:25:37;;;;;;;26.50;14.53;;;;;;;;;;5057095;28;20231;-38
2022/12/09 01:28:04;;;;;;;29.83;14.50;;;;;;;;;;5058314;28;20200;-39
2022/12/09 01:30:32;;;;;;;31.63;16.30;;;;;;;;;;5057513;28;20219;-39
2022/12/09 01:32:59;;;;;;;35.07;15.50;;;;;;;;;;5057641;28;20211;-39
2022/12/09 01:35:27;;;;;;;48.93;18.20;;;;;;;;;;5057937;28;20196;-38
2022/12/09 01:37:54;;;;;;;35.80;15.67;;;;;;;;;;5057304;28;20211;-39
2022/12/09 01:40:22;;;;;;;27.47;15.07;;;;;;;;;;5056353;28;20258;-39
2022/12/09 01:42:49;;;;;;;37.67;15.90;;;;;;;;;;5057343;28;20207;-38
2022/12/09 01:45:20;;;;;;;27.30;14.93;;;;;;;;;;5056230;28;20200;-39
2022/12/09 01:47:55;;;;;;;26.40;13.50;;;;;;;;;;5057473;28;20273;-38
2022/12/09 01:50:25;;;;;;;24.90;12.87;;;;;;;;;;5057223;28;20212;-38
2022/12/09 01:52:53;;;;;;;21.80;12.43;;;;;;;;;;5057208;28;20531;-39
2022/12/09 01:55:22;;;;;;;26.20;12.47;;;;;;;;;;5056254;28;20203;-38
2022/12/09 01:57:50;;;;;;;29.90;13.00;;;;;;;;;;5056669;28;20341;-39
2022/12/09 02:00:17;;;;;;;27.50;13.97;;;;;;;;;;5056222;28;20536;-38
2022/12/09 02:02:46;;;;;;;23.37;12.20;;;;;;;;;;5057053;28;20219;-40
2022/12/09 02:05:18;;;;;;;23.27;12.23;;;;;;;;;;5040081;28;20211;-38
2022/12/09 02:07:51;;;;;;;31.83;18.03;;;;;;;;;;5040415;28;20188;-39
2022/12/09 02:10:19;;;;;;;22.47;12.57;;;;;;;;;;5055695;28;20285;-38
2022/12/09 02:13:17;;;;;;;23.83;13.43;;;;;;;;;;5055990;28;20196;-39
2022/12/09 02:15:48;;;;;;;23.70;12.17;;;;;;;;;;5018450;28;20204;-38
2022/12/09 02:18:34;;;;;;;23.63;12.97;;;;;;;;;;5018469;28;20605;-38
2022/12/09 02:21:08;;;;;;;24.50;13.83;;;;;;;;;;5001346;28;20247;-39
2022/12/09 02:23:40;;;;;;;49.03;18.23;;;;;;;;;;5002359;28;20189;-39
2022/12/09 02:26:24;;;;;;;33.77;15.30;;;;;;;;;;5002375;28;20563;-39
2022/12/09 02:28:54;;;;;;;27.80;13.50;;;;;;;;;;5002204;28;20271;-39
2022/12/09 02:31:33;;;;;;;28.87;13.63;;;;;;;;;;5034646;28;20228;-38
2022/12/09 02:34:05;;;;;;;35.03;20.97;;;;;;;;;;5034858;28;20209;-39
2022/12/09 02:36:41;;;;;;;26.83;14.63;;;;;;;;;;5034739;28;20579;-39
2022/12/09 02:39:09;;;;;;;26.60;13.70;;;;;;;;;;5018261;28;20220;-38
2022/12/09 02:41:38;;;;;;;24.60;13.37;;;;;;;;;;5034615;28;20204;-38
2022/12/09 02:44:11;;;;;;;24.03;14.63;;;;;;;;;;5001948;28;20197;-39
2022/12/09 02:46:40;;;;;;;34.67;15.13;;;;;;;;;;5034613;28;20545;-38
2022/12/09 02:49:09;;;;;;;38.40;15.87;;;;;;;;;;5002375;28;20219;-38
2022/12/09 02:51:40;;;;;;;27.07;13.80;;;;;;;;;;5001679;28;20228;-38
2022/12/09 02:54:13;;;;;;;30.00;13.40;;;;;;;;;;5055332;28;20196;-38
2022/12/09 02:56:49;;;;;;;45.20;19.73;;;;;;;;;;5039187;28;20219;-38
2022/12/09 02:59:16;;;;;;;29.80;15.87;;;;;;;;;;5038567;28;20208;-41
2022/12/09 03:02:17;;;;;;;24.37;14.07;;;;;;;;;;5054984;28;20207;-39
2022/12/09 03:04:50;;;;;;;28.10;14.73;;;;;;;;;;5055010;28;20208;-38
2022/12/09 03:07:26;;;;;;;38.17;16.07;;;;;;;;;;5055026;28;20195;-38
2022/12/09 03:10:05;;;;;;;47.57;19.77;;;;;;;;;;5054647;28;20576;-39
2022/12/09 03:12:34;;;;;;;28.40;13.90;;;;;;;;;;5055499;28;20326;-38
2022/12/09 03:15:03;;;;;;;34.37;15.03;;;;;;;;;;5054914;28;20222;-39
2022/12/09 03:17:33;;;;;;;28.00;14.17;;;;;;;;;;5054716;28;20200;-39
2022/12/09 03:20:16;;;;;;;35.17;18.43;;;;;;;;;;5055256;28;20649;-38
2022/12/09 03:22:44;;;;;;;24.53;13.43;;;;;;;;;;5038509;28;20216;-39
2022/12/09 03:25:22;;;;;;;19.17;11.37;;;;;;;;;;5055359;28;20228;-38
2022/12/09 03:28:12;;;;;;;20.23;11.47;;;;;;;;;;5054939;28;20184;-38
2022/12/09 03:30:40;;;;;;;24.27;11.47;;;;;;;;;;5054122;28;20224;-39
2022/12/09 03:33:08;;;;;;;28.83;12.73;;;;;;;;;;5037877;28;20211;-38
2022/12/09 03:35:40;;;;;;;24.57;11.60;;;;;;;;;;5054470;28;20200;-39
2022/12/09 03:38:10;;;;;;;18.87;9.67;;;;;;;;;;5054657;28;20594;-40
2022/12/09 03:40:38;;;;;;;18.73;10.00;;;;;;;;;;5054333;28;20220;-38
2022/12/09 03:43:14;;;;;;;18.53;9.57;;;;;;;;;;5055129;28;20206;-39
2022/12/09 03:45:41;;;;;;;21.30;11.03;;;;;;;;;;5055314;28;20524;-38
2022/12/09 03:48:09;;;;;;;20.17;10.13;;;;;;;;;;5055023;28;20266;-39
2022/12/09 03:50:45;;;;;;;16.90;9.80;;;;;;;;;;5055202;28;20357;-39
2022/12/09 03:53:16;;;;;;;18.23;10.80;;;;;;;;;;5054281;28;20206;-39
2022/12/09 03:55:52;;;;;;;18.13;9.90;;;;;;;;;;5054064;28;20273;-38
2022/12/09 03:58:20;;;;;;;18.17;9.90;;;;;;;;;;5055541;28;20204;-38
2022/12/09 04:00:47;;;;;;;19.50;10.40;;;;;;;;;;5054758;28;20204;-38
2022/12/09 04:03:18;;;;;;;28.53;12.10;;;;;;;;;;5053732;28;20641;-39
2022/12/09 04:05:46;;;;;;;20.63;10.30;;;;;;;;;;5054957;28;20513;-39
2022/12/09 04:08:13;;;;;;;18.90;10.23;;;;;;;;;;5054826;28;20212;-38
2022/12/09 04:10:40;;;;;;;96.23;48.60;;;;;;;;;;5055238;28;20537;-38
2022/12/09 04:13:08;;;;;;;23.63;14.63;;;;;;;;;;5054565;28;20702;-39
2022/12/09 04:15:35;;;;;;;20.70;12.30;;;;;;;;;;5054647;28;20636;-39
2022/12/09 04:18:02;;;;;;;18.93;10.83;;;;;;;;;;5054745;28;20222;-39
2022/12/09 04:20:29;;;;;;;19.47;10.93;;;;;;;;;;5054782;28;20245;-39
2022/12/09 04:22:57;;;;;;;36.57;14.17;;;;;;;;;;5054393;28;20592;-39
2022/12/09 04:25:24;;;;;;;32.97;14.90;;;;;;;;;;5054556;28;20236;-38
2022/12/09 04:27:51;;;;;;;30.07;12.30;;;;;;;;;;5031347;28;20653;-38
2022/12/09 04:30:18;;;;;;;25.43;11.93;;;;;;;;;;5017388;28;20201;-39
2022/12/09 04:32:45;;;;;;;22.80;11.03;;;;;;;;;;5033302;28;20310;-41
2022/12/09 04:35:13;;;;;;;85.70;43.40;;;;;;;;;;5035862;28;20255;-40
2022/12/09 04:37:40;;;;;;;24.67;13.47;;;;;;;;;;5033959;28;20223;-39
2022/12/09 04:40:08;;;;;;;18.90;9.87;;;;;;;;;;5034277;28;20209;-38
2022/12/09 04:42:36;;;;;;;18.43;10.07;;;;;;;;;;5034217;28;20197;-39
2022/12/09 04:45:04;;;;;;;16.67;10.03;;;;;;;;;;5032774;28;20209;-38
2022/12/09 04:47:32;;;;;;;26.63;14.97;;;;;;;;;;5028333;28;20534;-41
2022/12/09 04:50:00;;;;;;;29.80;13.53;;;;;;;;;;5032060;28;20630;-39
2022/12/09 04:52:27;;;;;;;40.23;14.27;;;;;;;;;;5037116;28;20562;-39
2022/12/09 04:54:54;;;;;;;29.27;11.87;;;;;;;;;;5038194;28;20197;-40
2022/12/09 04:57:22;;;;;;;24.30;10.80;;;;;;;;;;5031405;28;20212;-40
2022/12/09 04:59:49;;;;;;;23.97;11.10;;;;;;;;;;5029018;28;20621;-38
2022/12/09 05:02:16;;;;;;;29.63;18.13;;;;;;;;;;5024385;28;20228;-40
2022/12/09 05:04:45;;;;;;;18.83;10.60;;;;;;;;;;5035230;28;20236;-39
2022/12/09 05:07:13;;;;;;;13.60;9.03;;;;;;;;;;5036545;28;20333;-39
2022/12/09 05:09:40;;;;;;;16.03;8.97;;;;;;;;;;5036942;28;20303;-38
2022/12/09 05:12:08;;;;;;;17.53;10.07;;;;;;;;;;5023295;28;20237;-39
2022/12/09 05:14:35;;;;;;;45.70;15.13;;;;;;;;;;5033151;28;20598;-39
2022/12/09 05:17:02;;;;;;;26.83;9.97;;;;;;;;;;5027588;28;20677;-39
2022/12/09 05:19:30;;;;;;;17.47;8.37;;;;;;;;;;5026957;28;20213;-39
2022/12/09 05:21:57;;;;;;;17.30;9.10;;;;;;;;;;5034763;28;20678;-39
2022/12/09 05:24:25;;;;;;;22.90;12.80;;;;;;;;;;5036628;28;20232;-39
2022/12/09 05:26:52;;;;;;;15.67;10.20;;;;;;;;;;5030564;28;20232;-39
2022/12/09 05:29:19;;;;;;;17.40;10.30;;;;;;;;;;5026436;28;20223;-39
2022/12/09 05:31:50;;;;;;;14.83;9.07;;;;;;;;;;5034839;28;20236;-41
2022/12/09 05:34:17;;;;;;;17.40;9.23;;;;;;;;;;5027128;28;20221;-40
2022/12/09 05:36:45;;;;;;;50.67;17.67;;;;;;;;;;5026063;28;20213;-39
2022/12/09 05:39:12;;;;;;;31.83;12.80;;;;;;;;;;5024840;28;20232;-42
2022/12/09 05:41:40;;;;;;;28.97;12.50;;;;;;;;;;5023277;28;20236;-40
2022/12/09 05:44:06;;;;;;;24.33;12.00;;;;;;;;;;5032902;28;20567;-40
2022/12/09 05:46:34;;;;;;;27.07;12.37;;;;;;;;;;5036871;28;20224;-40
2022/12/09 05:49:01;;;;;;;19.37;10.97;;;;;;;;;;5036703;28;20225;-39
2022/12/09 05:51:29;;;;;;;17.87;9.67;;;;;;;;;;5035437;28;20255;-41
2022/12/09 05:54:00;;;;;;;16.43;8.60;;;;;;;;;;5034181;28;20225;-42
2022/12/09 05:56:28;;;;;;;16.77;8.77;;;;;;;;;;5049881;28;21268;-41
2022/12/09 05:58:56;;;;;;;13.80;8.67;;;;;;;;;;5034638;28;20275;-41
2022/12/09 06:01:24;;;;;;;22.47;11.37;;;;;;;;;;5035328;28;20236;-41
2022/12/09 06:03:52;;;;;;;23.83;10.80;;;;;;;;;;5035013;28;20256;-40
2022/12/09 06:06:22;;;;;;;29.53;12.43;;;;;;;;;;5033645;28;20274;-39
2022/12/09 06:08:54;;;;;;;24.90;11.40;;;;;;;;;;5023356;28;20247;-40
2022/12/09 06:11:22;;;;;;;22.83;10.60;;;;;;;;;;5036714;28;20209;-39
2022/12/09 06:13:49;;;;;;;29.70;16.33;;;;;;;;;;5034593;28;20668;-40
2022/12/09 06:16:19;;;;;;;18.33;12.47;;;;;;;;;;5034666;28;20205;-40
2022/12/09 06:18:48;;;;;;;18.87;11.03;;;;;;;;;;5034477;28;20300;-40
2022/12/09 06:21:17;;;;;;;15.83;8.80;;;;;;;;;;5034572;28;20200;-40
2022/12/09 06:23:44;;;;;;;15.50;9.40;;;;;;;;;;5034572;28;20638;-40
2022/12/09 06:26:16;;;;;;;18.67;12.10;;;;;;;;;;5034418;28;20305;-39
2022/12/09 06:28:44;;;;;;;41.03;13.60;;;;;;;;;;5035622;28;20204;-39
2022/12/09 06:31:12;;;;;;;31.43;13.27;;;;;;;;;;5036165;28;20216;-39
2022/12/09 06:33:40;;;;;;;117.70;49.47;;;;;;;;;;5036005;28;20208;-39
2022/12/09 06:36:27;;;;;;;185.07;79.47;;;;;;;;;;5036119;28;20208;-39
2022/12/09 06:38:55;;;;;;;77.50;37.63;;;;;;;;;;5036113;28;20201;-39
2022/12/09 06:41:23;;;;;;;43.90;25.87;;;;;;;;;;5035928;28;20219;-39
2022/12/09 06:43:51;;;;;;;26.77;19.67;;;;;;;;;;5035772;28;20637;-39
2022/12/09 06:46:23;;;;;;;27.83;14.83;;;;;;;;;;5036030;28;20586;-39
2022/12/09 06:48:52;;;;;;;145.63;42.20;;;;;;;;;;5034879;28;20576;-39
2022/12/09 06:51:21;;;;;;;66.07;24.67;;;;;;;;;;5035832;28;20225;-39
2022/12/09 06:53:48;;;;;;;56.03;18.33;;;;;;;;;;5035988;28;20204;-39
2022/12/09 06:56:16;;;;;;;33.47;14.67;;;;;;;;;;5036032;28;20200;-38
2022/12/09 06:58:44;;;;;;;24.27;13.23;;;;;;;;;;5036061;28;20196;-39
2022/12/09 07:01:30;;;;;;;66.27;26.37;;;;;;;;;;5035603;28;20209;-40
2022/12/09 07:03:57;;;;;;;100.83;35.07;;;;;;;;;;5035753;28;20513;-40
2022/12/09 07:06:30;;;;;;;78.07;32.67;;;;;;;;;;5035437;28;20630;-39
2022/12/09 07:09:00;;;;;;;49.50;22.70;;;;;;;;;;5035986;28;20189;-38
2022/12/09 07:11:28;;;;;;;57.73;23.90;;;;;;;;;;5035548;28;20235;-39
2022/12/09 07:13:56;;;;;;;46.50;19.77;;;;;;;;;;5034550;28;20208;-39
2022/12/09 07:16:23;;;;;;;36.37;20.70;;;;;;;;;;5035847;28;20216;-38
2022/12/09 07:18:51;;;;;;;43.23;27.83;;;;;;;;;;5035487;28;20205;-39
2022/12/09 07:21:21;;;;;;;69.60;26.03;;;;;;;;;;5035603;28;20193;-38
2022/12/09 07:23:49;;;;;;;64.17;21.57;;;;;;;;;;5035550;28;20240;-38
2022/12/09 07:26:17;;;;;;;47.60;20.20;;;;;;;;;;5035110;28;20236;-38
2022/12/09 07:28:46;;;;;;;56.63;25.37;;;;;;;;;;5035624;28;20209;-39
2022/12/09 07:31:22;;;;;;;34.43;18.63;;;;;;;;;;5035384;28;20208;-40
2022/12/09 07:33:50;;;;;;;27.37;15.50;;;;;;;;;;5035333;28;20641;-39
2022/12/09 07:36:19;;;;;;;29.83;16.00;;;;;;;;;;5035197;28;20205;-39
2022/12/09 07:38:53;;;;;;;28.57;15.10;;;;;;;;;;5035249;28;20292;-39
2022/12/09 07:41:21;;;;;;;32.33;18.83;;;;;;;;;;5035422;28;20212;-39
2022/12/09 07:43:48;;;;;;;56.60;22.13;;;;;;;;;;5035255;28;20277;-39
2022/12/09 07:46:17;;;;;;;50.67;20.00;;;;;;;;;;5035046;28;20200;-39
2022/12/09 07:48:45;;;;;;;35.70;17.77;;;;;;;;;;5035148;28;20232;-39
2022/12/09 07:51:14;;;;;;;139.50;44.77;;;;;;;;;;5034780;28;20255;-39
2022/12/09 07:53:41;;;;;;;93.33;35.67;;;;;;;;;;5035119;28;20196;-41
2022/12/09 07:56:12;;;;;;;98.70;34.23;;;;;;;;;;5035090;28;20227;-39
2022/12/09 07:58:40;;;;;;;68.43;26.73;;;;;;;;;;5035027;28;20200;-40
2022/12/09 08:14:09;;;;;;;97.77;37.30;;;;;;;;;;5091934;27;20715;-38
2022/12/09 08:16:40;;;;;;;63.90;27.63;;;;;;;;;;5092123;28;20226;-38
2022/12/09 08:19:08;;;;;;;47.20;20.83;;;;;;;;;;5091723;28;20210;-38
2022/12/09 08:21:36;;;;;;;29.93;14.63;;;;;;;;;;5091643;28;20230;-39
2022/12/09 08:24:06;;;;;;;33.27;17.50;;;;;;;;;;5091943;28;20203;-39
2022/12/09 08:26:35;;;;;;;50.93;23.23;;;;;;;;;;5092143;28;20207;-38
2022/12/09 08:29:11;;;;;;;40.57;19.63;;;;;;;;;;5090582;28;20202;-39
2022/12/09 08:31:41;;;;;;;28.90;14.77;;;;;;;;;;5091854;28;20198;-38
2022/12/09 08:34:09;;;;;;;29.40;16.70;;;;;;;;;;5090060;28;20213;-38
2022/12/09 08:36:37;;;;;;;38.33;19.13;;;;;;;;;;5091793;28;20202;-39
2022/12/09 08:39:04;;;;;;;55.50;23.30;;;;;;;;;;5091753;28;20210;-38
2022/12/09 08:41:34;;;;;;;65.63;32.47;;;;;;;;;;5091416;28;20213;-38
2022/12/09 08:44:14;;;;;;;50.50;20.50;;;;;;;;;;5091616;28;20203;-39
2022/12/09 08:46:44;;;;;;;80.60;28.53;;;;;;;;;;5091435;28;20206;-39
2022/12/09 08:49:12;;;;;;;44.77;17.93;;;;;;;;;;5091262;28;20281;-38
2022/12/09 08:51:40;;;;;;;67.03;24.37;;;;;;;;;;5091248;28;20194;-39
2022/12/09 08:54:07;;;;;;;34.93;17.23;;;;;;;;;;5091224;28;20241;-38
2022/12/09 08:56:35;;;;;;;44.83;23.17;;;;;;;;;;5091067;28;20207;-38
2022/12/09 08:59:03;;;;;;;36.57;19.40;;;;;;;;;;5090978;28;20198;-38
2022/12/09 09:01:33;;;;;;;36.53;19.23;;;;;;;;;;5091246;28;20206;-38
2022/12/09 09:04:04;;;;;;;33.70;18.93;;;;;;;;;;5091072;28;20229;-39
2022/12/09 09:06:33;;;;;;;35.53;18.43;;;;;;;;;;5091454;28;20612;-39
2022/12/09 09:09:00;;;;;;;64.20;25.70;;;;;;;;;;5091500;28;20286;-39
2022/12/09 09:11:28;;;;;;;80.70;29.50;;;;;;;;;;5090938;28;20199;-39
2022/12/09 09:13:56;;;;;;;61.87;26.23;;;;;;;;;;5084589;28;20238;-39
2022/12/09 09:16:26;;;;;;;46.77;24.30;;;;;;;;;;5077896;28;20203;-39
2022/12/09 09:18:53;;;;;;;34.37;17.67;;;;;;;;;;5077570;28;20210;-38
2022/12/09 09:21:23;;;;;;;27.37;15.97;;;;;;;;;;5077611;28;20210;-38
2022/12/09 09:23:50;;;;;;;66.60;28.60;;;;;;;;;;5077606;28;20317;-38
2022/12/09 09:26:20;;;;;;;54.43;27.70;;;;;;;;;;5077225;28;20653;-38
2022/12/09 09:28:47;;;;;;;44.07;22.70;;;;;;;;;;5077384;28;20196;-38
2022/12/09 09:31:17;;;;;;;31.13;18.13;;;;;;;;;;5077138;28;20544;-39
2022/12/09 09:33:45;;;;;;;31.27;16.77;;;;;;;;;;5077506;28;20241;-39
2022/12/09 09:36:19;;;;;;;57.30;23.23;;;;;;;;;;5077441;28;20200;-38
2022/12/09 09:38:52;;;;;;;45.43;21.07;;;;;;;;;;5077728;28;20184;-37
2022/12/09 09:41:38;;;;;;;30.67;17.60;;;;;;;;;;5077199;28;20230;-38
2022/12/09 09:44:26;;;;;;;35.17;18.17;;;;;;;;;;5075962;28;20527;-39
2022/12/09 09:46:55;;;;;;;26.37;15.63;;;;;;;;;;5077042;28;20587;-38
2022/12/09 09:49:32;;;;;;;29.27;16.97;;;;;;;;;;5077129;28;20212;-38
2022/12/09 09:52:05;;;;;;;31.03;19.03;;;;;;;;;;5076738;28;20222;-39
2022/12/09 09:54:32;;;;;;;27.23;17.17;;;;;;;;;;5076742;28;20585;-38
2022/12/09 09:57:04;;;;;;;27.60;15.83;;;;;;;;;;5076631;28;20644;-38
2022/12/09 10:00:00;;;;;;;27.87;16.30;;;;;;;;;;5076911;28;20234;-38
2022/12/09 10:02:57;;;;;;;28.10;16.57;;;;;;;;;;5076325;28;20549;-38
2022/12/09 10:05:45;;;;;;;34.37;18.50;;;;;;;;;;5076769;28;20278;-38
2022/12/09 10:08:25;;;;;;;40.20;19.53;;;;;;;;;;5076754;28;20203;-39
2022/12/09 10:11:15;;;;;;;41.20;19.33;;;;;;;;;;5076119;28;20191;-38
2022/12/09 10:13:53;;;;;;;43.87;20.30;;;;;;;;;;5075828;28;20697;-38
2022/12/09 10:16:37;;;;;;;35.70;19.20;;;;;;;;;;5076616;28;20199;-38
2022/12/09 10:19:09;;;;;;;31.23;16.67;;;;;;;;;;5075497;28;20203;-38
2022/12/09 10:21:42;;;;;;;40.37;19.80;;;;;;;;;;5076522;28;20191;-39
2022/12/09 10:24:18;;;;;;;33.67;20.03;;;;;;;;;;5076599;28;20223;-39
2022/12/09 10:26:56;;;;;;;35.13;19.93;;;;;;;;;;5074636;28;20195;-39
2022/12/09 10:29:47;;;;;;;28.53;17.53;;;;;;;;;;5075495;28;20194;-38
2022/12/09 10:32:19;;;;;;;27.70;17.07;;;;;;;;;;5075803;28;20215;-39
2022/12/09 10:34:47;;;;;;;28.27;17.20;;;;;;;;;;5076230;28;20191;-38
2022/12/09 10:37:32;;;;;;;113.47;47.93;;;;;;;;;;5076137;28;20195;-38
2022/12/09 10:40:20;;;;;;;238.67;97.50;;;;;;;;;;5075995;28;20199;-38
2022/12/09 10:45:43;;;;;;;142.33;63.07;;;;;;;;;;5076285;28;20191;-39
2022/12/09 10:48:32;;;;;;;51.07;26.67;;;;;;;;;;5075672;28;20199;-38
2022/12/09 10:51:03;;;;;;;62.40;31.60;;;;;;;;;;5076056;28;20212;-38
2022/12/09 10:53:31;;;;;;;224.30;89.77;;;;;;;;;;5076519;28;20211;-39
2022/12/09 10:56:00;;;;;;;146.20;60.97;;;;;;;;;;5074890;28;20554;-39
2022/12/09 10:58:29;;;;;;;109.67;47.93;;;;;;;;;;5074603;28;20287;-38
2022/12/09 11:01:01;;;;;;;58.53;29.80;;;;;;;;;;5075307;28;20203;-39
2022/12/09 11:03:34;;;;;;;48.07;22.20;;;;;;;;;;5075326;28;20310;-38
2022/12/09 11:06:27;;;;;;;70.63;34.23;;;;;;;;;;5075801;28;20207;-38
2022/12/09 11:08:56;;;;;;;65.03;33.73;;;;;;;;;;5033725;28;20205;-38
2022/12/09 11:11:42;;;;;;;40.17;20.43;;;;;;;;;;5033933;28;20204;-39
2022/12/09 11:14:31;;;;;;;29.60;17.73;;;;;;;;;;5033847;28;20593;-38
2022/12/09 11:17:17;;;;;;;26.30;15.93;;;;;;;;;;5017694;28;20213;-38
2022/12/09 11:19:48;;;;;;;25.43;15.27;;;;;;;;;;5033731;28;20204;-39
2022/12/09 11:22:40;;;;;;;31.83;18.07;;;;;;;;;;5033525;28;20577;-38
2022/12/09 11:25:11;;;;;;;38.33;20.77;;;;;;;;;;5034179;28;20196;-38
2022/12/09 11:27:54;;;;;;;33.43;16.70;;;;;;;;;;5033691;28;20205;-38
2022/12/09 11:30:25;;;;;;;31.73;16.20;;;;;;;;;;5033587;28;20204;-39
2022/12/09 11:33:02;;;;;;;37.53;17.40;;;;;;;;;;5033706;28;20216;-38
2022/12/09 11:35:42;;;;;;;23.20;14.13;;;;;;;;;;5033750;28;20294;-38
2022/12/09 11:38:29;;;;;;;22.80;14.53;;;;;;;;;;5033409;28;20208;-38
2022/12/09 11:41:08;;;;;;;21.53;13.33;;;;;;;;;;5033351;28;20184;-38
2022/12/09 11:43:50;;;;;;;27.97;16.30;;;;;;;;;;5033386;28;20228;-39
2022/12/09 11:46:21;;;;;;;27.20;15.43;;;;;;;;;;5059537;28;20535;-39
2022/12/09 11:48:55;;;;;;;27.70;15.87;;;;;;;;;;5074069;28;20216;-38
2022/12/09 11:51:26;;;;;;;29.27;17.10;;;;;;;;;;5075484;28;20211;-38
2022/12/09 11:54:01;;;;;;;27.90;16.53;;;;;;;;;;5075315;28;20247;-38
2022/12/09 11:56:30;;;;;;;26.70;16.10;;;;;;;;;;5073833;28;20197;-39
2022/12/09 11:59:05;;;;;;;26.80;16.13;;;;;;;;;;5073747;28;20645;-38
2022/12/09 12:02:17;;;;;;;27.90;15.83;;;;;;;;;;5073854;28;20501;-38
2022/12/09 12:04:55;;;;;;;31.03;17.20;;;;;;;;;;5033132;28;20208;-39
2022/12/09 12:07:37;;;;;;;29.23;17.10;;;;;;;;;;5033140;28;20208;-38
2022/12/09 12:10:31;;;;;;;26.87;16.73;;;;;;;;;;5017353;28;20200;-39
2022/12/09 12:13:04;;;;;;;28.83;16.77;;;;;;;;;;5025249;28;20244;-39
2022/12/09 12:16:07;;;;;;;31.53;17.23;;;;;;;;;;5033150;28;20213;-39
2022/12/09 12:18:56;;;;;;;28.17;17.27;;;;;;;;;;5016549;28;20200;-39
2022/12/09 12:21:35;;;;;;;28.37;17.37;;;;;;;;;;5033028;28;20204;-39
2022/12/09 12:24:07;;;;;;;25.27;15.37;;;;;;;;;;5032862;28;20255;-38
2022/12/09 12:26:41;;;;;;;27.00;17.07;;;;;;;;;;5032852;28;20228;-38
2022/12/09 12:29:30;;;;;;;37.17;20.47;;;;;;;;;;5033162;28;20231;-38
2022/12/09 12:32:12;;;;;;;52.10;26.13;;;;;;;;;;5016985;28;20208;-38
2022/12/09 12:34:43;;;;;;;48.20;23.50;;;;;;;;;;5033128;28;20208;-38
2022/12/09 12:37:34;;;;;;;39.67;20.70;;;;;;;;;;5016920;28;20185;-38
2022/12/09 12:40:21;;;;;;;45.57;22.80;;;;;;;;;;5016945;28;20270;-40
2022/12/09 12:46:25;;;;;;;38.67;19.30;;;;;;;;;;5023586;28;20207;-40
2022/12/09 12:49:18;;;;;;;39.77;20.33;;;;;;;;;;5066705;28;20199;-40
2022/12/09 12:52:06;;;;;;;47.83;22.10;;;;;;;;;;5077187;28;20610;-39
2022/12/09 12:55:05;;;;;;;53.10;25.73;;;;;;;;;;5078079;28;20257;-38
2022/12/09 12:57:35;;;;;;;51.83;25.33;;;;;;;;;;5077913;28;20188;-40
2022/12/09 13:00:11;;;;;;;55.60;26.23;;;;;;;;;;5076806;28;20218;-39
2022/12/09 13:03:08;;;;;;;50.47;24.80;;;;;;;;;;5077088;28;20210;-38
2022/12/09 13:05:39;;;;;;;47.57;24.47;;;;;;;;;;5077091;28;20179;-38
2022/12/09 13:08:15;;;;;;;72.00;33.73;;;;;;;;;;5076889;28;20184;-38
2022/12/09 13:10:51;;;;;;;117.60;49.90;;;;;;;;;;5076635;28;20187;-38
2022/12/09 13:13:23;;;;;;;279.80;121.37;;;;;;;;;;5074984;28;20238;-38
2022/12/09 13:15:52;;;;;;;57.10;29.67;;;;;;;;;;5077555;28;20531;-38
2022/12/09 13:18:34;;;;;;;45.37;25.90;;;;;;;;;;5076286;28;20203;-39
2022/12/09 13:21:03;;;;;;;57.80;32.17;;;;;;;;;;5076265;28;20195;-42
2022/12/09 13:24:01;;;;;;;60.17;30.27;;;;;;;;;;5077029;28;20219;-39
2022/12/09 13:26:42;;;;;;;59.77;31.73;;;;;;;;;;5076973;28;20642;-39
2022/12/09 13:29:34;;;;;;;61.87;31.93;;;;;;;;;;5075630;28;20195;-38
2022/12/09 13:32:26;;;;;;;51.93;28.77;;;;;;;;;;5076812;28;20183;-38
2022/12/09 13:35:00;;;;;;;58.70;30.43;;;;;;;;;;5061124;28;20187;-39
2022/12/09 13:37:32;;;;;;;58.43;29.87;;;;;;;;;;5077126;28;20211;-40
2022/12/09 13:40:00;;;;;;;77.93;39.33;;;;;;;;;;5075083;28;20203;-41
2022/12/09 13:45:16;;;;;;;78.80;38.67;;;;;;;;;;5076443;28;20199;-41
2022/12/09 13:47:43;;;;;;;275.60;98.13;;;;;;;;;;5075711;28;20214;-41
2022/12/09 13:50:38;;;;;;;351.43;124.37;;;;;;;;;;5076547;28;20263;-42
2022/12/09 13:53:17;;;;;;;236.47;91.10;;;;;;;;;;5075771;28;20618;-42
2022/12/09 13:55:50;;;;;;;131.30;51.60;;;;;;;;;;5076910;28;20188;-41
2022/12/09 13:58:33;;;;;;;173.93;59.33;;;;;;;;;;5076586;28;20192;-40
2022/12/09 14:01:13;;;;;;;157.73;52.03;;;;;;;;;;5074937;28;20208;-40
2022/12/09 14:04:05;;;;;;;120.23;43.73;;;;;;;;;;5076032;28;20234;-39
2022/12/09 14:06:39;;;;;;;112.00;40.97;;;;;;;;;;5069025;28;20206;-44
2022/12/09 14:09:28;;;;;;;107.80;38.70;;;;;;;;;;5070123;28;20203;-40
2022/12/09 14:11:56;;;;;;;117.60;41.33;;;;;;;;;;5068955;28;20673;-40
2022/12/09 14:14:24;;;;;;;95.73;38.60;;;;;;;;;;5061918;28;20226;-43
2022/12/09 14:16:54;;;;;;;77.27;31.77;;;;;;;;;;5073520;28;20609;-41
2022/12/09 14:19:25;;;;;;;57.30;27.57;;;;;;;;;;5072754;28;20215;-41
2022/12/09 14:22:30;;;;;;;80.87;37.73;;;;;;;;;;5073361;28;20696;-40
2022/12/09 14:25:41;;;;;;;183.27;52.57;;;;;;;;;;5066515;28;20231;-39
2022/12/09 14:28:36;;;;;;;196.57;53.50;;;;;;;;;;5069290;28;20215;-39
2022/12/09 14:31:03;;;;;;;151.30;46.40;;;;;;;;;;5075021;28;20304;-42
2022/12/09 14:33:45;;;;;;;121.63;41.00;;;;;;;;;;5073957;28;20230;-41
2022/12/09 14:36:15;;;;;;;76.50;28.83;;;;;;;;;;5071285;28;20231;-40
2022/12/09 14:38:58;;;;;;;70.23;28.40;;;;;;;;;;5069386;28;20302;-42
2022/12/09 14:41:51;;;;;;;78.30;30.57;;;;;;;;;;5059935;28;20219;-40
2022/12/09 14:44:36;;;;;;;130.73;46.17;;;;;;;;;;5074184;28;20223;-43
2022/12/09 14:47:26;;;;;;;270.02;104.55;;;;;;;;;;5070249;28;20592;-39
2022/12/09 14:49:54;;;;;;;175.30;74.90;;;;;;;;;;5071724;28;20218;-40
2022/12/09 14:52:30;;;;;;;132.63;54.37;;;;;;;;;;5071310;28;20219;-40
2022/12/09 14:55:00;;;;;;;82.03;37.00;;;;;;;;;;5074026;28;20238;-42
2022/12/09 14:57:41;;;;;;;55.73;26.43;;;;;;;;;;5072857;28;20314;-41
2022/12/09 15:00:24;;;;;;;46.03;22.60;;;;;;;;;;5068336;28;20207;-38
2022/12/09 15:02:52;;;;;;;45.70;21.47;;;;;;;;;;5071177;28;20277;-40
2022/12/09 15:05:39;;;;;;;47.23;21.73;;;;;;;;;;5074145;28;20298;-38
2022/12/09 15:08:26;;;;;;;61.87;24.03;;;;;;;;;;5073145;28;20231;-38
2022/12/09 15:10:52;;;;;;;52.60;22.93;;;;;;;;;;5074097;28;20226;-40
2022/12/09 15:13:20;;;;;;;44.93;22.07;;;;;;;;;;5074004;28;20250;-39